FFT245 TNCM-TJSJ
Flight info
| Callsign | FFT245 |
|---|---|
| Flight time | 0h 35m |
| Altitude | 22000 |
| Route | BOPAT2 GOUDA L577 STIIV DCT SJU |
| Aircraft | A320/M-SDE3FGHIRWY/LB1 |
Departure
| Time | 2026-05-05 15:57 |
|---|---|
| Airport | Princess Juliana International Airport (TNCM) |
Arrival
| Time | 2026-05-05 16:32 |
|---|---|
| Airport | Luis Munoz Marin International Airport (TJSJ) |
| Time | Latitude | Longitude | Altitude | Speed | Heading |
|---|---|---|---|---|---|
| 2026-05-05 15:46 | 18.04258 | -63.11164 | 21 ft | 0 kts | 352° |
| 2026-05-05 15:53 | 18.04259 | -63.11162 | 21 ft | 1 kts | 12° |
| 2026-05-05 15:53 | 18.04259 | -63.11156 | 21 ft | 2 kts | 86° |
| 2026-05-05 15:54 | 18.04252 | -63.11154 | 22 ft | 2 kts | 159° |
| 2026-05-05 15:54 | 18.04236 | -63.11160 | 21 ft | 2 kts | 226° |
| 2026-05-05 15:54 | 18.04235 | -63.11327 | 21 ft | 12 kts | 315° |
| 2026-05-05 15:55 | 18.04241 | -63.11343 | 21 ft | 6 kts | 282° |
| 2026-05-05 15:55 | 18.04034 | -63.11887 | 21 ft | 20 kts | 258° |
| 2026-05-05 15:55 | 18.04011 | -63.11935 | 21 ft | 19 kts | 238° |
| 2026-05-05 15:56 | 18.03951 | -63.11948 | 24 ft | 10 kts | 109° |
| 2026-05-05 15:56 | 18.04004 | -63.11523 | 22 ft | 82 kts | 83° |
| 2026-05-05 15:56 | 18.04101 | -63.10843 | 22 ft | 130 kts | 79° |
| 2026-05-05 15:56 | 18.04241 | -63.09940 | 439 ft | 137 kts | 82° |
| 2026-05-05 15:57 | 18.04131 | -63.08914 | 1064 ft | 142 kts | 122° |
| 2026-05-05 15:57 | 18.03620 | -63.08425 | 1426 ft | 148 kts | 143° |
| 2026-05-05 15:57 | 18.01578 | -63.08445 | 2039 ft | 199 kts | 215° |
| 2026-05-05 15:57 | 18.00978 | -63.09118 | 2362 ft | 201 kts | 226° |
| 2026-05-05 15:58 | 17.99895 | -63.10504 | 2667 ft | 225 kts | 227° |
| 2026-05-05 15:58 | 17.99219 | -63.11382 | 2848 ft | 242 kts | 226° |
| 2026-05-05 15:58 | 17.97581 | -63.13519 | 3578 ft | 270 kts | 227° |
| 2026-05-05 15:58 | 17.96390 | -63.15074 | 4405 ft | 275 kts | 227° |
| 2026-05-05 15:59 | 17.95183 | -63.16647 | 5274 ft | 279 kts | 228° |
| 2026-05-05 15:59 | 17.94372 | -63.17706 | 5860 ft | 281 kts | 228° |
| 2026-05-05 15:59 | 17.93508 | -63.18833 | 6476 ft | 282 kts | 227° |
| 2026-05-05 15:59 | 17.91684 | -63.21206 | 7626 ft | 287 kts | 229° |
| 2026-05-05 16:00 | 17.90494 | -63.22775 | 8383 ft | 291 kts | 233° |
| 2026-05-05 16:00 | 17.89716 | -63.24806 | 9174 ft | 297 kts | 263° |
| 2026-05-05 16:00 | 17.90010 | -63.27000 | 9987 ft | 301 kts | 290° |
| 2026-05-05 16:00 | 17.90778 | -63.29150 | 10575 ft | 311 kts | 283° |
| 2026-05-05 16:01 | 17.91181 | -63.31644 | 10760 ft | 335 kts | 277° |
| 2026-05-05 16:01 | 17.91416 | -63.33918 | 10936 ft | 354 kts | 275° |
| 2026-05-05 16:01 | 17.91583 | -63.36155 | 11349 ft | 360 kts | 273° |
| 2026-05-05 16:01 | 17.91726 | -63.38565 | 11908 ft | 364 kts | 273° |
| 2026-05-05 16:02 | 17.91872 | -63.41334 | 13004 ft | 350 kts | 273° |
| 2026-05-05 16:02 | 17.92012 | -63.43972 | 14402 ft | 329 kts | 273° |
| 2026-05-05 16:02 | 17.92145 | -63.46356 | 15658 ft | 308 kts | 274° |
| 2026-05-05 16:02 | 17.92270 | -63.48522 | 16883 ft | 288 kts | 275° |
| 2026-05-05 16:03 | 17.92390 | -63.50503 | 17754 ft | 281 kts | 276° |
| 2026-05-05 16:03 | 17.92523 | -63.52660 | 18459 ft | 281 kts | 276° |
| 2026-05-05 16:03 | 17.92653 | -63.54738 | 18999 ft | 282 kts | 275° |
| 2026-05-05 16:03 | 17.92783 | -63.56793 | 19508 ft | 284 kts | 275° |
| 2026-05-05 16:04 | 17.92913 | -63.58847 | 19977 ft | 288 kts | 274° |
| 2026-05-05 16:04 | 17.93053 | -63.61039 | 20444 ft | 291 kts | 274° |
| 2026-05-05 16:04 | 17.93188 | -63.63195 | 21001 ft | 295 kts | 274° |
| 2026-05-05 16:04 | 17.93322 | -63.65365 | 21629 ft | 300 kts | 272° |
| 2026-05-05 16:05 | 17.93554 | -63.67548 | 22016 ft | 314 kts | 279° |
| 2026-05-05 16:05 | 17.94004 | -63.69947 | 22106 ft | 338 kts | 280° |
| 2026-05-05 16:05 | 17.94497 | -63.72528 | 22118 ft | 363 kts | 280° |
| 2026-05-05 16:06 | 17.95962 | -63.80242 | 22120 ft | 416 kts | 280° |
| 2026-05-05 16:06 | 17.96577 | -63.83501 | 22120 ft | 431 kts | 280° |
| 2026-05-05 16:06 | 17.97177 | -63.86682 | 22121 ft | 444 kts | 280° |
| 2026-05-05 16:07 | 17.97782 | -63.89895 | 22118 ft | 454 kts | 280° |
| 2026-05-05 16:07 | 17.98397 | -63.93187 | 22120 ft | 463 kts | 280° |
| 2026-05-05 16:07 | 17.99021 | -63.96547 | 22116 ft | 471 kts | 280° |
| 2026-05-05 16:07 | 17.99650 | -63.99937 | 22116 ft | 478 kts | 280° |
| 2026-05-05 16:08 | 18.00293 | -64.03392 | 22119 ft | 485 kts | 280° |
| 2026-05-05 16:08 | 18.00961 | -64.06982 | 22116 ft | 491 kts | 280° |
| 2026-05-05 16:08 | 18.01614 | -64.10491 | 22111 ft | 484 kts | 280° |
| 2026-05-05 16:08 | 18.02269 | -64.13989 | 22118 ft | 479 kts | 280° |
| 2026-05-05 16:09 | 18.02876 | -64.17227 | 22113 ft | 478 kts | 280° |
| 2026-05-05 16:09 | 18.03540 | -64.20797 | 22114 ft | 478 kts | 280° |
| 2026-05-05 16:09 | 18.04197 | -64.24330 | 22116 ft | 478 kts | 280° |
| 2026-05-05 16:09 | 18.04835 | -64.27755 | 22114 ft | 478 kts | 280° |
| 2026-05-05 16:10 | 18.05409 | -64.30855 | 22115 ft | 478 kts | 280° |
| 2026-05-05 16:10 | 18.06118 | -64.34695 | 22114 ft | 478 kts | 280° |
| 2026-05-05 16:10 | 18.06749 | -64.38124 | 22115 ft | 478 kts | 280° |
| 2026-05-05 16:10 | 18.06994 | -64.39458 | 22113 ft | 478 kts | 280° |
| 2026-05-05 16:11 | 18.09767 | -64.54515 | 22110 ft | 477 kts | 280° |
| 2026-05-05 16:12 | 18.10425 | -64.58107 | 22111 ft | 477 kts | 280° |
| 2026-05-05 16:12 | 18.11766 | -64.65427 | 21329 ft | 463 kts | 281° |
| 2026-05-05 16:13 | 18.13576 | -64.75271 | 19882 ft | 439 kts | 281° |
| 2026-05-05 16:13 | 18.13958 | -64.77375 | 19568 ft | 436 kts | 281° |
| 2026-05-05 16:13 | 18.14740 | -64.81678 | 18942 ft | 431 kts | 281° |
| 2026-05-05 16:14 | 18.15746 | -64.87206 | 18101 ft | 425 kts | 281° |
| 2026-05-05 16:14 | 18.16912 | -64.93640 | 17035 ft | 419 kts | 281° |
| 2026-05-05 16:15 | 18.17845 | -64.98738 | 16206 ft | 416 kts | 281° |
| 2026-05-05 16:15 | 18.19013 | -65.04707 | 15251 ft | 414 kts | 278° |
| 2026-05-05 16:16 | 18.19570 | -65.11574 | 14203 ft | 412 kts | 271° |
| 2026-05-05 16:16 | 18.19705 | -65.16599 | 13370 ft | 410 kts | 271° |
| 2026-05-05 16:17 | 18.19883 | -65.22663 | 12371 ft | 404 kts | 271° |
| 2026-05-05 16:17 | 18.19981 | -65.25728 | 11863 ft | 401 kts | 271° |
| 2026-05-05 16:18 | 18.20191 | -65.31976 | 11143 ft | 412 kts | 271° |
| 2026-05-05 16:18 | 18.20299 | -65.35031 | 10834 ft | 412 kts | 271° |
| 2026-05-05 16:18 | 18.20563 | -65.41029 | 10237 ft | 409 kts | 272° |
| 2026-05-05 16:19 | 18.20742 | -65.44366 | 9895 ft | 407 kts | 272° |
| 2026-05-05 16:19 | 18.20908 | -65.47419 | 9559 ft | 406 kts | 272° |
| 2026-05-05 16:19 | 18.21185 | -65.52449 | 9007 ft | 404 kts | 272° |
| 2026-05-05 16:20 | 18.21527 | -65.58503 | 8354 ft | 403 kts | 272° |
| 2026-05-05 16:20 | 18.21815 | -65.63447 | 7825 ft | 402 kts | 272° |
| 2026-05-05 16:21 | 18.22196 | -65.69823 | 7146 ft | 386 kts | 272° |
| 2026-05-05 16:22 | 18.22257 | -65.78802 | 6113 ft | 367 kts | 266° |
| 2026-05-05 16:22 | 18.21942 | -65.87758 | 5048 ft | 361 kts | 266° |
| 2026-05-05 16:23 | 18.21797 | -65.92350 | 4492 ft | 360 kts | 268° |
| 2026-05-05 16:23 | 18.22101 | -65.94921 | 4178 ft | 360 kts | 285° |
| 2026-05-05 16:23 | 18.25233 | -65.99728 | 3466 ft | 359 kts | 313° |
| 2026-05-05 16:24 | 18.26885 | -66.01568 | 3166 ft | 357 kts | 313° |
| 2026-05-05 16:24 | 18.28643 | -66.03515 | 2982 ft | 356 kts | 314° |
| 2026-05-05 16:24 | 18.31276 | -66.06834 | 3015 ft | 293 kts | 299° |
| 2026-05-05 16:25 | 18.32186 | -66.08649 | 3000 ft | 283 kts | 296° |
| 2026-05-05 16:25 | 18.34043 | -66.12450 | 3005 ft | 267 kts | 296° |
| 2026-05-05 16:25 | 18.34886 | -66.14135 | 3004 ft | 242 kts | 296° |
| 2026-05-05 16:26 | 18.36187 | -66.16691 | 2993 ft | 215 kts | 296° |
| 2026-05-05 16:26 | 18.37609 | -66.19456 | 3412 ft | 191 kts | 303° |
| 2026-05-05 16:27 | 18.38578 | -66.20393 | 3420 ft | 187 kts | 335° |
| 2026-05-05 16:27 | 18.39943 | -66.20755 | 3301 ft | 183 kts | 2° |
| 2026-05-05 16:27 | 18.41060 | -66.20591 | 3276 ft | 179 kts | 22° |
| 2026-05-05 16:27 | 18.42184 | -66.19949 | 3212 ft | 171 kts | 44° |
| 2026-05-05 16:28 | 18.42984 | -66.18940 | 3102 ft | 168 kts | 66° |
| 2026-05-05 16:28 | 18.43349 | -66.17819 | 2947 ft | 163 kts | 85° |
| 2026-05-05 16:28 | 18.43382 | -66.16586 | 2744 ft | 171 kts | 94° |
| 2026-05-05 16:28 | 18.43380 | -66.15414 | 2555 ft | 177 kts | 94° |
| 2026-05-05 16:29 | 18.43379 | -66.14298 | 2361 ft | 177 kts | 92° |
| 2026-05-05 16:29 | 18.43378 | -66.13101 | 2153 ft | 175 kts | 92° |
| 2026-05-05 16:29 | 18.43376 | -66.11782 | 1916 ft | 176 kts | 93° |
| 2026-05-05 16:29 | 18.43374 | -66.10782 | 1746 ft | 167 kts | 92° |
| 2026-05-05 16:30 | 18.43372 | -66.09169 | 1450 ft | 156 kts | 93° |
| 2026-05-05 16:30 | 18.43370 | -66.07986 | 1243 ft | 151 kts | 94° |
| 2026-05-05 16:30 | 18.43366 | -66.06777 | 1034 ft | 160 kts | 93° |
| 2026-05-05 16:30 | 18.43365 | -66.06023 | 920 ft | 157 kts | 92° |
| 2026-05-05 16:31 | 18.43361 | -66.04427 | 635 ft | 147 kts | 91° |
| 2026-05-05 16:31 | 18.43354 | -66.03751 | 523 ft | 140 kts | 91° |
| 2026-05-05 16:31 | 18.43366 | -66.02631 | 264 ft | 137 kts | 91° |
| 2026-05-05 16:31 | 18.43361 | -66.01677 | 146 ft | 138 kts | 90° |
| 2026-05-05 16:32 | 18.43353 | -66.00840 | 26 ft | 132 kts | 94° |
| 2026-05-05 16:32 | 18.43352 | -65.99977 | 20 ft | 64 kts | 89° |
| 2026-05-05 16:32 | 18.43353 | -65.99728 | 20 ft | 23 kts | 90° |
| 2026-05-05 16:32 | 18.43363 | -65.99625 | 22 ft | 23 kts | 75° |
| 2026-05-05 16:33 | 18.43463 | -65.99591 | 19 ft | 10 kts | 269° |
| 2026-05-05 16:33 | 18.43461 | -65.99622 | 19 ft | 0 kts | 269° |
| 2026-05-05 16:34 | 18.43461 | -65.99631 | 19 ft | 8 kts | 269° |
| 2026-05-05 16:34 | 18.43503 | -65.99802 | 19 ft | 16 kts | 357° |
| 2026-05-05 16:34 | 18.43570 | -65.99860 | 19 ft | 11 kts | 278° |
| 2026-05-05 16:34 | 18.43562 | -65.99993 | 19 ft | 25 kts | 270° |
| 2026-05-05 16:35 | 18.43594 | -66.00058 | 18 ft | 8 kts | 306° |
| 2026-05-05 16:35 | 18.43613 | -66.00076 | 19 ft | 0 kts | 322° |
| 2026-05-05 16:35 | 18.43626 | -66.00084 | 18 ft | 3 kts | 325° |
| 2026-05-05 16:35 | 18.43628 | -66.00086 | 18 ft | 0 kts | 324° |